sensor_id;sensor_type;location;lat;lon;timestamp;P1;durP1;ratioP1;P2;durP2;ratioP2
6850;SDS011;3464;42.728;23.296;2022-09-09T00:00:54;19.53;;;11.93;;
6850;SDS011;3464;42.728;23.296;2022-09-09T00:03:24;20.60;;;11.90;;
6850;SDS011;3464;42.728;23.296;2022-09-09T00:06:25;17.93;;;12.03;;
6850;SDS011;3464;42.728;23.296;2022-09-09T00:08:42;19.50;;;12.03;;
6850;SDS011;3464;42.728;23.296;2022-09-09T00:11:05;25.93;;;12.30;;
6850;SDS011;3464;42.728;23.296;2022-09-09T00:13:34;25.43;;;12.83;;
6850;SDS011;3464;42.728;23.296;2022-09-09T00:16:04;21.73;;;12.43;;
6850;SDS011;3464;42.728;23.296;2022-09-09T00:18:44;21.37;;;12.77;;
6850;SDS011;3464;42.728;23.296;2022-09-09T00:21:23;23.30;;;12.67;;
6850;SDS011;3464;42.728;23.296;2022-09-09T00:23:51;23.43;;;13.03;;
6850;SDS011;3464;42.728;23.296;2022-09-09T00:26:28;20.30;;;13.20;;
6850;SDS011;3464;42.728;23.296;2022-09-09T00:29:03;20.73;;;12.40;;
6850;SDS011;3464;42.728;23.296;2022-09-09T00:31:30;20.27;;;12.80;;
6850;SDS011;3464;42.728;23.296;2022-09-09T00:33:58;19.80;;;12.40;;
6850;SDS011;3464;42.728;23.296;2022-09-09T00:36:24;19.63;;;12.53;;
6850;SDS011;3464;42.728;23.296;2022-09-09T00:38:52;23.70;;;13.33;;
6850;SDS011;3464;42.728;23.296;2022-09-09T00:41:33;22.30;;;14.43;;
6850;SDS011;3464;42.728;23.296;2022-09-09T00:44:07;18.80;;;12.40;;
6850;SDS011;3464;42.728;23.296;2022-09-09T00:52:01;23.50;;;13.30;;
6850;SDS011;3464;42.728;23.296;2022-09-09T00:54:48;22.43;;;12.30;;
6850;SDS011;3464;42.728;23.296;2022-09-09T00:59:58;20.93;;;12.93;;
6850;SDS011;3464;42.728;23.296;2022-09-09T01:02:43;20.67;;;13.40;;
6850;SDS011;3464;42.728;23.296;2022-09-09T01:05:12;22.67;;;14.13;;
6850;SDS011;3464;42.728;23.296;2022-09-09T01:07:39;22.80;;;13.50;;
6850;SDS011;3464;42.728;23.296;2022-09-09T01:10:07;20.97;;;13.33;;
6850;SDS011;3464;42.728;23.296;2022-09-09T01:12:42;22.00;;;13.63;;
6850;SDS011;3464;42.728;23.296;2022-09-09T01:15:11;24.80;;;14.70;;
6850;SDS011;3464;42.728;23.296;2022-09-09T01:17:42;21.40;;;14.63;;
6850;SDS011;3464;42.728;23.296;2022-09-09T01:20:14;23.10;;;14.10;;
6850;SDS011;3464;42.728;23.296;2022-09-09T01:22:42;22.53;;;14.90;;
6850;SDS011;3464;42.728;23.296;2022-09-09T01:27:53;23.57;;;13.67;;
6850;SDS011;3464;42.728;23.296;2022-09-09T01:30:19;19.70;;;13.43;;
6850;SDS011;3464;42.728;23.296;2022-09-09T01:32:46;24.23;;;14.70;;
6850;SDS011;3464;42.728;23.296;2022-09-09T01:35:19;24.00;;;14.90;;
6850;SDS011;3464;42.728;23.296;2022-09-09T01:37:46;21.70;;;13.73;;
6850;SDS011;3464;42.728;23.296;2022-09-09T01:40:13;26.53;;;15.50;;
6850;SDS011;3464;42.728;23.296;2022-09-09T01:42:40;31.00;;;14.83;;
6850;SDS011;3464;42.728;23.296;2022-09-09T01:45:07;24.03;;;15.07;;
6850;SDS011;3464;42.728;23.296;2022-09-09T01:47:34;22.80;;;15.50;;
6850;SDS011;3464;42.728;23.296;2022-09-09T01:50:00;23.17;;;14.97;;
6850;SDS011;3464;42.728;23.296;2022-09-09T01:52:27;22.20;;;14.27;;
6850;SDS011;3464;42.728;23.296;2022-09-09T01:54:53;31.10;;;15.77;;
6850;SDS011;3464;42.728;23.296;2022-09-09T01:57:31;28.80;;;15.50;;
6850;SDS011;3464;42.728;23.296;2022-09-09T01:59:59;28.70;;;16.30;;
6850;SDS011;3464;42.728;23.296;2022-09-09T02:02:44;25.00;;;16.00;;
6850;SDS011;3464;42.728;23.296;2022-09-09T02:05:24;25.30;;;16.10;;
6850;SDS011;3464;42.728;23.296;2022-09-09T02:07:53;22.80;;;14.47;;
6850;SDS011;3464;42.728;23.296;2022-09-09T02:10:21;23.47;;;14.57;;
6850;SDS011;3464;42.728;23.296;2022-09-09T02:12:49;21.17;;;14.83;;
6850;SDS011;3464;42.728;23.296;2022-09-09T02:15:20;24.20;;;15.40;;
6850;SDS011;3464;42.728;23.296;2022-09-09T02:17:49;23.83;;;15.23;;
6850;SDS011;3464;42.728;23.296;2022-09-09T02:20:15;24.30;;;14.80;;
6850;SDS011;3464;42.728;23.296;2022-09-09T02:22:43;25.20;;;15.40;;
6850;SDS011;3464;42.728;23.296;2022-09-09T02:25:10;22.90;;;15.40;;
6850;SDS011;3464;42.728;23.296;2022-09-09T02:27:36;24.70;;;15.30;;
6850;SDS011;3464;42.728;23.296;2022-09-09T02:30:03;25.10;;;14.03;;
6850;SDS011;3464;42.728;23.296;2022-09-09T02:32:30;22.93;;;14.33;;
6850;SDS011;3464;42.728;23.296;2022-09-09T02:34:58;22.60;;;15.10;;
6850;SDS011;3464;42.728;23.296;2022-09-09T02:37:24;23.17;;;14.23;;
6850;SDS011;3464;42.728;23.296;2022-09-09T02:39:50;25.33;;;15.60;;
6850;SDS011;3464;42.728;23.296;2022-09-09T02:42:17;22.03;;;14.93;;
6850;SDS011;3464;42.728;23.296;2022-09-09T02:44:43;24.60;;;16.23;;
6850;SDS011;3464;42.728;23.296;2022-09-09T02:50:54;23.83;;;15.90;;
6850;SDS011;3464;42.728;23.296;2022-09-09T02:53:01;23.60;;;16.00;;
6850;SDS011;3464;42.728;23.296;2022-09-09T02:55:41;24.53;;;14.93;;
6850;SDS011;3464;42.728;23.296;2022-09-09T02:58:23;28.40;;;15.80;;
6850;SDS011;3464;42.728;23.296;2022-09-09T03:00:50;26.10;;;15.37;;
6850;SDS011;3464;42.728;23.296;2022-09-09T03:03:17;25.87;;;16.00;;
6850;SDS011;3464;42.728;23.296;2022-09-09T03:05:44;26.80;;;15.77;;
6850;SDS011;3464;42.728;23.296;2022-09-09T03:08:11;21.87;;;15.77;;
6850;SDS011;3464;42.728;23.296;2022-09-09T03:10:38;24.57;;;16.10;;
6850;SDS011;3464;42.728;23.296;2022-09-09T03:13:04;22.20;;;15.53;;
6850;SDS011;3464;42.728;23.296;2022-09-09T03:15:31;27.57;;;16.27;;
6850;SDS011;3464;42.728;23.296;2022-09-09T03:17:57;22.17;;;15.47;;
6850;SDS011;3464;42.728;23.296;2022-09-09T03:20:24;27.03;;;17.17;;
6850;SDS011;3464;42.728;23.296;2022-09-09T03:22:52;26.97;;;15.97;;
6850;SDS011;3464;42.728;23.296;2022-09-09T03:25:19;25.60;;;16.63;;
6850;SDS011;3464;42.728;23.296;2022-09-09T03:27:46;24.67;;;16.83;;
6850;SDS011;3464;42.728;23.296;2022-09-09T03:30:13;22.70;;;15.70;;
6850;SDS011;3464;42.728;23.296;2022-09-09T03:32:40;27.20;;;16.67;;
6850;SDS011;3464;42.728;23.296;2022-09-09T03:35:07;23.77;;;15.83;;
6850;SDS011;3464;42.728;23.296;2022-09-09T03:37:35;24.93;;;15.70;;
6850;SDS011;3464;42.728;23.296;2022-09-09T03:40:03;26.60;;;16.20;;
6850;SDS011;3464;42.728;23.296;2022-09-09T03:42:29;28.10;;;16.10;;
6850;SDS011;3464;42.728;23.296;2022-09-09T03:44:56;27.27;;;16.10;;
6850;SDS011;3464;42.728;23.296;2022-09-09T03:47:23;27.90;;;16.90;;
6850;SDS011;3464;42.728;23.296;2022-09-09T03:49:50;24.60;;;16.77;;
6850;SDS011;3464;42.728;23.296;2022-09-09T03:52:16;24.37;;;15.77;;
6850;SDS011;3464;42.728;23.296;2022-09-09T03:54:44;27.13;;;16.90;;
6850;SDS011;3464;42.728;23.296;2022-09-09T03:57:11;27.43;;;17.27;;
6850;SDS011;3464;42.728;23.296;2022-09-09T03:59:38;33.00;;;18.43;;
6850;SDS011;3464;42.728;23.296;2022-09-09T04:02:04;29.83;;;17.37;;
6850;SDS011;3464;42.728;23.296;2022-09-09T04:04:32;25.27;;;17.10;;
6850;SDS011;3464;42.728;23.296;2022-09-09T04:06:59;27.87;;;18.80;;
6850;SDS011;3464;42.728;23.296;2022-09-09T04:09:26;31.77;;;17.30;;
6850;SDS011;3464;42.728;23.296;2022-09-09T04:11:52;28.80;;;18.00;;
6850;SDS011;3464;42.728;23.296;2022-09-09T04:14:20;29.20;;;17.47;;
6850;SDS011;3464;42.728;23.296;2022-09-09T04:16:47;29.63;;;16.23;;
6850;SDS011;3464;42.728;23.296;2022-09-09T04:19:14;25.97;;;15.83;;
6850;SDS011;3464;42.728;23.296;2022-09-09T04:21:41;24.93;;;16.97;;
6850;SDS011;3464;42.728;23.296;2022-09-09T04:24:07;30.57;;;15.87;;
6850;SDS011;3464;42.728;23.296;2022-09-09T04:26:38;26.47;;;15.53;;
6850;SDS011;3464;42.728;23.296;2022-09-09T04:29:04;26.60;;;15.57;;
6850;SDS011;3464;42.728;23.296;2022-09-09T04:31:30;25.20;;;15.43;;
6850;SDS011;3464;42.728;23.296;2022-09-09T04:33:57;27.60;;;15.10;;
6850;SDS011;3464;42.728;23.296;2022-09-09T04:36:24;22.63;;;13.73;;
6850;SDS011;3464;42.728;23.296;2022-09-09T04:38:50;31.87;;;14.20;;
6850;SDS011;3464;42.728;23.296;2022-09-09T04:41:17;21.77;;;13.10;;
6850;SDS011;3464;42.728;23.296;2022-09-09T04:43:43;21.00;;;12.07;;
6850;SDS011;3464;42.728;23.296;2022-09-09T04:46:10;23.10;;;11.90;;
6850;SDS011;3464;42.728;23.296;2022-09-09T04:48:37;26.73;;;11.60;;
6850;SDS011;3464;42.728;23.296;2022-09-09T04:51:04;23.97;;;11.50;;
6850;SDS011;3464;42.728;23.296;2022-09-09T04:53:31;25.10;;;11.83;;
6850;SDS011;3464;42.728;23.296;2022-09-09T04:56:02;22.57;;;11.40;;
6850;SDS011;3464;42.728;23.296;2022-09-09T04:58:29;20.97;;;10.57;;
6850;SDS011;3464;42.728;23.296;2022-09-09T05:01:02;23.10;;;10.87;;
6850;SDS011;3464;42.728;23.296;2022-09-09T05:03:22;20.47;;;10.33;;
6850;SDS011;3464;42.728;23.296;2022-09-09T05:05:48;26.40;;;11.10;;
6850;SDS011;3464;42.728;23.296;2022-09-09T05:08:15;19.30;;;10.40;;
6850;SDS011;3464;42.728;23.296;2022-09-09T05:10:41;20.33;;;10.40;;
6850;SDS011;3464;42.728;23.296;2022-09-09T05:13:08;21.07;;;9.57;;
6850;SDS011;3464;42.728;23.296;2022-09-09T05:15:34;29.87;;;10.80;;
6850;SDS011;3464;42.728;23.296;2022-09-09T05:18:01;25.10;;;10.47;;
6850;SDS011;3464;42.728;23.296;2022-09-09T05:20:27;22.77;;;10.40;;
6850;SDS011;3464;42.728;23.296;2022-09-09T05:22:55;22.07;;;9.20;;
6850;SDS011;3464;42.728;23.296;2022-09-09T05:25:22;21.47;;;9.13;;
6850;SDS011;3464;42.728;23.296;2022-09-09T05:27:49;20.10;;;8.10;;
6850;SDS011;3464;42.728;23.296;2022-09-09T05:30:15;17.40;;;8.67;;
6850;SDS011;3464;42.728;23.296;2022-09-09T05:32:42;17.43;;;7.70;;
6850;SDS011;3464;42.728;23.296;2022-09-09T05:35:08;20.57;;;8.50;;
6850;SDS011;3464;42.728;23.296;2022-09-09T05:37:35;21.37;;;7.80;;
6850;SDS011;3464;42.728;23.296;2022-09-09T05:40:02;21.60;;;9.80;;
6850;SDS011;3464;42.728;23.296;2022-09-09T05:42:29;19.43;;;7.93;;
6850;SDS011;3464;42.728;23.296;2022-09-09T05:44:56;20.53;;;7.43;;
6850;SDS011;3464;42.728;23.296;2022-09-09T05:47:22;17.60;;;7.30;;
6850;SDS011;3464;42.728;23.296;2022-09-09T05:49:49;23.67;;;7.67;;
6850;SDS011;3464;42.728;23.296;2022-09-09T05:52:15;26.07;;;7.70;;
6850;SDS011;3464;42.728;23.296;2022-09-09T05:54:43;17.90;;;7.47;;
6850;SDS011;3464;42.728;23.296;2022-09-09T05:57:10;18.60;;;8.07;;
6850;SDS011;3464;42.728;23.296;2022-09-09T05:59:37;18.20;;;9.00;;
6850;SDS011;3464;42.728;23.296;2022-09-09T06:02:04;17.83;;;7.80;;
6850;SDS011;3464;42.728;23.296;2022-09-09T06:04:30;20.93;;;7.50;;
6850;SDS011;3464;42.728;23.296;2022-09-09T06:06:57;17.80;;;7.17;;
6850;SDS011;3464;42.728;23.296;2022-09-09T06:09:23;17.63;;;8.07;;
6850;SDS011;3464;42.728;23.296;2022-09-09T06:11:50;18.80;;;7.70;;
6850;SDS011;3464;42.728;23.296;2022-09-09T06:14:16;27.87;;;7.80;;
6850;SDS011;3464;42.728;23.296;2022-09-09T06:16:44;21.23;;;8.00;;
6850;SDS011;3464;42.728;23.296;2022-09-09T06:19:10;20.83;;;7.43;;
6850;SDS011;3464;42.728;23.296;2022-09-09T06:21:37;18.63;;;7.20;;
6850;SDS011;3464;42.728;23.296;2022-09-09T06:24:04;19.30;;;7.50;;
6850;SDS011;3464;42.728;23.296;2022-09-09T06:26:32;20.83;;;7.00;;
6850;SDS011;3464;42.728;23.296;2022-09-09T06:29:00;16.27;;;7.13;;
6850;SDS011;3464;42.728;23.296;2022-09-09T06:31:28;16.73;;;6.60;;
6850;SDS011;3464;42.728;23.296;2022-09-09T06:33:55;16.93;;;6.83;;
6850;SDS011;3464;42.728;23.296;2022-09-09T06:36:23;18.73;;;7.10;;
6850;SDS011;3464;42.728;23.296;2022-09-09T06:38:50;18.43;;;7.37;;
6850;SDS011;3464;42.728;23.296;2022-09-09T06:41:18;17.93;;;6.77;;
6850;SDS011;3464;42.728;23.296;2022-09-09T06:43:44;15.50;;;6.70;;
6850;SDS011;3464;42.728;23.296;2022-09-09T06:46:12;18.37;;;6.37;;
6850;SDS011;3464;42.728;23.296;2022-09-09T06:48:38;15.80;;;6.43;;
6850;SDS011;3464;42.728;23.296;2022-09-09T06:51:09;15.23;;;6.13;;
6850;SDS011;3464;42.728;23.296;2022-09-09T06:53:35;13.27;;;5.80;;
6850;SDS011;3464;42.728;23.296;2022-09-09T06:56:02;18.77;;;6.30;;
6850;SDS011;3464;42.728;23.296;2022-09-09T06:58:44;16.60;;;5.90;;
6850;SDS011;3464;42.728;23.296;2022-09-09T07:01:12;18.60;;;6.20;;
6850;SDS011;3464;42.728;23.296;2022-09-09T07:03:40;19.30;;;6.00;;
6850;SDS011;3464;42.728;23.296;2022-09-09T07:06:09;17.80;;;6.40;;
6850;SDS011;3464;42.728;23.296;2022-09-09T07:08:36;17.10;;;5.63;;
6850;SDS011;3464;42.728;23.296;2022-09-09T07:11:13;21.60;;;6.30;;
6850;SDS011;3464;42.728;23.296;2022-09-09T07:13:40;17.83;;;5.80;;
6850;SDS011;3464;42.728;23.296;2022-09-09T07:16:09;17.43;;;5.87;;
6850;SDS011;3464;42.728;23.296;2022-09-09T07:18:34;19.80;;;6.00;;
6850;SDS011;3464;42.728;23.296;2022-09-09T07:21:02;20.37;;;6.80;;
6850;SDS011;3464;42.728;23.296;2022-09-09T07:23:29;25.97;;;6.97;;
6850;SDS011;3464;42.728;23.296;2022-09-09T07:25:58;16.17;;;6.80;;
6850;SDS011;3464;42.728;23.296;2022-09-09T07:28:25;23.93;;;6.90;;
6850;SDS011;3464;42.728;23.296;2022-09-09T07:30:55;19.70;;;6.70;;
6850;SDS011;3464;42.728;23.296;2022-09-09T07:33:21;15.60;;;6.43;;
6850;SDS011;3464;42.728;23.296;2022-09-09T07:35:47;17.07;;;6.20;;
6850;SDS011;3464;42.728;23.296;2022-09-09T07:38:14;21.63;;;7.00;;
6850;SDS011;3464;42.728;23.296;2022-09-09T07:40:40;15.53;;;6.70;;
6850;SDS011;3464;42.728;23.296;2022-09-09T07:43:07;20.83;;;6.60;;
6850;SDS011;3464;42.728;23.296;2022-09-09T07:45:33;13.67;;;5.80;;
6850;SDS011;3464;42.728;23.296;2022-09-09T07:48:00;16.70;;;6.33;;
6850;SDS011;3464;42.728;23.296;2022-09-09T07:50:27;17.10;;;6.17;;
6850;SDS011;3464;42.728;23.296;2022-09-09T07:52:53;16.33;;;6.47;;
6850;SDS011;3464;42.728;23.296;2022-09-09T07:55:20;14.13;;;6.07;;
6850;SDS011;3464;42.728;23.296;2022-09-09T07:57:46;16.07;;;7.40;;
6850;SDS011;3464;42.728;23.296;2022-09-09T08:00:13;16.20;;;7.43;;
6850;SDS011;3464;42.728;23.296;2022-09-09T08:02:42;19.03;;;7.40;;
6850;SDS011;3464;42.728;23.296;2022-09-09T08:05:09;19.70;;;6.90;;
6850;SDS011;3464;42.728;23.296;2022-09-09T08:07:37;16.70;;;6.47;;
6850;SDS011;3464;42.728;23.296;2022-09-09T08:10:03;21.77;;;8.70;;
6850;SDS011;3464;42.728;23.296;2022-09-09T08:12:30;21.83;;;6.70;;
6850;SDS011;3464;42.728;23.296;2022-09-09T08:14:56;24.47;;;6.60;;
6850;SDS011;3464;42.728;23.296;2022-09-09T08:17:23;22.30;;;7.40;;
6850;SDS011;3464;42.728;23.296;2022-09-09T08:19:50;18.47;;;6.17;;
6850;SDS011;3464;42.728;23.296;2022-09-09T08:22:16;22.77;;;9.40;;
6850;SDS011;3464;42.728;23.296;2022-09-09T08:24:43;23.80;;;7.50;;
6850;SDS011;3464;42.728;23.296;2022-09-09T08:27:09;18.70;;;7.30;;
6850;SDS011;3464;42.728;23.296;2022-09-09T08:29:36;22.30;;;7.10;;
6850;SDS011;3464;42.728;23.296;2022-09-09T08:32:03;22.93;;;7.07;;
6850;SDS011;3464;42.728;23.296;2022-09-09T08:34:29;16.83;;;6.93;;
6850;SDS011;3464;42.728;23.296;2022-09-09T08:36:56;19.40;;;6.63;;
6850;SDS011;3464;42.728;23.296;2022-09-09T08:39:22;20.80;;;6.77;;
6850;SDS011;3464;42.728;23.296;2022-09-09T08:42:07;16.13;;;6.50;;
6850;SDS011;3464;42.728;23.296;2022-09-09T08:50:13;15.87;;;7.90;;
6850;SDS011;3464;42.728;23.296;2022-09-09T08:53:15;17.83;;;7.03;;
6850;SDS011;3464;42.728;23.296;2022-09-09T08:55:44;17.13;;;6.73;;
6850;SDS011;3464;42.728;23.296;2022-09-09T08:58:16;18.63;;;6.77;;
6850;SDS011;3464;42.728;23.296;2022-09-09T09:03:28;19.90;;;6.77;;
6850;SDS011;3464;42.728;23.296;2022-09-09T09:05:59;13.10;;;5.80;;
6850;SDS011;3464;42.728;23.296;2022-09-09T09:08:37;19.83;;;6.70;;
6850;SDS011;3464;42.728;23.296;2022-09-09T09:11:03;22.50;;;6.40;;
6850;SDS011;3464;42.728;23.296;2022-09-09T09:16:13;19.50;;;6.17;;
6850;SDS011;3464;42.728;23.296;2022-09-09T09:18:43;16.23;;;6.17;;
6850;SDS011;3464;42.728;23.296;2022-09-09T09:21:12;20.47;;;5.83;;
6850;SDS011;3464;42.728;23.296;2022-09-09T09:23:40;20.50;;;6.43;;
6850;SDS011;3464;42.728;23.296;2022-09-09T09:26:06;14.27;;;6.37;;
6850;SDS011;3464;42.728;23.296;2022-09-09T09:28:33;15.43;;;6.83;;
6850;SDS011;3464;42.728;23.296;2022-09-09T09:31:03;22.93;;;7.13;;
6850;SDS011;3464;42.728;23.296;2022-09-09T09:33:42;21.77;;;6.70;;
6850;SDS011;3464;42.728;23.296;2022-09-09T09:36:09;16.23;;;6.90;;
6850;SDS011;3464;42.728;23.296;2022-09-09T09:38:36;18.97;;;6.53;;
6850;SDS011;3464;42.728;23.296;2022-09-09T09:41:03;20.07;;;7.23;;
6850;SDS011;3464;42.728;23.296;2022-09-09T09:43:30;18.17;;;6.77;;
6850;SDS011;3464;42.728;23.296;2022-09-09T09:45:57;15.37;;;6.83;;
6850;SDS011;3464;42.728;23.296;2022-09-09T09:48:24;19.57;;;7.20;;
6850;SDS011;3464;42.728;23.296;2022-09-09T09:50:54;16.20;;;6.87;;
6850;SDS011;3464;42.728;23.296;2022-09-09T09:53:20;18.37;;;7.23;;
6850;SDS011;3464;42.728;23.296;2022-09-09T09:56:04;16.50;;;6.37;;
6850;SDS011;3464;42.728;23.296;2022-09-09T09:58:46;17.73;;;6.40;;
6850;SDS011;3464;42.728;23.296;2022-09-09T10:01:25;14.80;;;6.73;;
6850;SDS011;3464;42.728;23.296;2022-09-09T10:03:51;23.37;;;7.27;;
6850;SDS011;3464;42.728;23.296;2022-09-09T10:06:17;18.83;;;6.80;;
6850;SDS011;3464;42.728;23.296;2022-09-09T10:08:44;17.67;;;7.10;;
6850;SDS011;3464;42.728;23.296;2022-09-09T10:11:18;19.40;;;6.97;;
6850;SDS011;3464;42.728;23.296;2022-09-09T10:13:46;17.40;;;6.60;;
6850;SDS011;3464;42.728;23.296;2022-09-09T10:18:53;16.17;;;6.50;;
6850;SDS011;3464;42.728;23.296;2022-09-09T10:22:26;19.30;;;7.20;;
6850;SDS011;3464;42.728;23.296;2022-09-09T10:29:47;14.50;;;7.07;;
6850;SDS011;3464;42.728;23.296;2022-09-09T10:35:22;24.80;;;8.73;;
6850;SDS011;3464;42.728;23.296;2022-09-09T10:38:05;22.73;;;8.53;;
6850;SDS011;3464;42.728;23.296;2022-09-09T10:41:00;18.57;;;7.90;;
6850;SDS011;3464;42.728;23.296;2022-09-09T10:46:15;19.40;;;7.13;;
6850;SDS011;3464;42.728;23.296;2022-09-09T10:48:44;18.57;;;7.57;;
6850;SDS011;3464;42.728;23.296;2022-09-09T10:53:46;20.60;;;7.57;;
6850;SDS011;3464;42.728;23.296;2022-09-09T10:56:22;28.03;;;7.93;;
6850;SDS011;3464;42.728;23.296;2022-09-09T10:58:52;20.03;;;7.10;;
6850;SDS011;3464;42.728;23.296;2022-09-09T11:01:22;24.33;;;8.23;;
6850;SDS011;3464;42.728;23.296;2022-09-09T11:03:49;17.67;;;7.20;;
6850;SDS011;3464;42.728;23.296;2022-09-09T11:06:15;17.63;;;7.90;;
6850;SDS011;3464;42.728;23.296;2022-09-09T11:08:41;19.43;;;7.37;;
6850;SDS011;3464;42.728;23.296;2022-09-09T11:11:14;19.87;;;7.30;;
6850;SDS011;3464;42.728;23.296;2022-09-09T11:14:00;13.97;;;7.00;;
6850;SDS011;3464;42.728;23.296;2022-09-09T11:16:28;19.00;;;7.83;;
6850;SDS011;3464;42.728;23.296;2022-09-09T11:19:00;24.17;;;7.50;;
6850;SDS011;3464;42.728;23.296;2022-09-09T11:21:35;23.43;;;7.60;;
6850;SDS011;3464;42.728;23.296;2022-09-09T11:24:13;21.47;;;7.70;;
6850;SDS011;3464;42.728;23.296;2022-09-09T11:26:41;15.07;;;7.03;;
6850;SDS011;3464;42.728;23.296;2022-09-09T11:29:28;19.13;;;7.73;;
6850;SDS011;3464;42.728;23.296;2022-09-09T11:32:13;18.40;;;7.20;;
6850;SDS011;3464;42.728;23.296;2022-09-09T11:34:51;15.80;;;7.50;;
6850;SDS011;3464;42.728;23.296;2022-09-09T11:40:03;17.67;;;7.40;;
6850;SDS011;3464;42.728;23.296;2022-09-09T11:42:40;17.40;;;7.60;;
6850;SDS011;3464;42.728;23.296;2022-09-09T11:45:09;21.73;;;8.17;;
6850;SDS011;3464;42.728;23.296;2022-09-09T11:47:51;21.43;;;8.50;;
6850;SDS011;3464;42.728;23.296;2022-09-09T11:50:33;17.60;;;7.53;;
6850;SDS011;3464;42.728;23.296;2022-09-09T11:58:38;17.90;;;7.80;;
6850;SDS011;3464;42.728;23.296;2022-09-09T12:03:41;23.90;;;7.33;;
6850;SDS011;3464;42.728;23.296;2022-09-09T12:06:17;19.27;;;7.57;;
6850;SDS011;3464;42.728;23.296;2022-09-09T12:08:47;16.27;;;7.90;;
6850;SDS011;3464;42.728;23.296;2022-09-09T12:11:12;14.03;;;7.20;;
6850;SDS011;3464;42.728;23.296;2022-09-09T12:13:59;17.40;;;7.20;;
6850;SDS011;3464;42.728;23.296;2022-09-09T12:16:32;21.30;;;8.10;;
6850;SDS011;3464;42.728;23.296;2022-09-09T12:19:06;19.63;;;8.77;;
6850;SDS011;3464;42.728;23.296;2022-09-09T12:21:35;17.20;;;8.00;;
6850;SDS011;3464;42.728;23.296;2022-09-09T12:24:04;21.00;;;8.50;;
6850;SDS011;3464;42.728;23.296;2022-09-09T12:26:37;25.97;;;8.97;;
6850;SDS011;3464;42.728;23.296;2022-09-09T12:29:12;16.70;;;7.83;;
6850;SDS011;3464;42.728;23.296;2022-09-09T12:31:43;18.70;;;8.03;;
6850;SDS011;3464;42.728;23.296;2022-09-09T12:34:28;23.17;;;9.23;;
6850;SDS011;3464;42.728;23.296;2022-09-09T12:36:56;16.37;;;8.53;;
6850;SDS011;3464;42.728;23.296;2022-09-09T12:39:33;18.47;;;8.77;;
6850;SDS011;3464;42.728;23.296;2022-09-09T12:42:16;21.77;;;8.57;;
6850;SDS011;3464;42.728;23.296;2022-09-09T12:44:51;24.70;;;9.40;;
6850;SDS011;3464;42.728;23.296;2022-09-09T12:47:19;20.37;;;9.00;;
6850;SDS011;3464;42.728;23.296;2022-09-09T12:49:45;18.60;;;8.60;;
6850;SDS011;3464;42.728;23.296;2022-09-09T12:52:14;17.10;;;7.87;;
6850;SDS011;3464;42.728;23.296;2022-09-09T12:54:42;19.60;;;8.77;;
6850;SDS011;3464;42.728;23.296;2022-09-09T12:57:09;19.77;;;8.13;;
6850;SDS011;3464;42.728;23.296;2022-09-09T12:59:36;20.40;;;6.83;;
6850;SDS011;3464;42.728;23.296;2022-09-09T13:02:01;19.63;;;6.70;;
6850;SDS011;3464;42.728;23.296;2022-09-09T13:04:28;17.07;;;6.63;;
6850;SDS011;3464;42.728;23.296;2022-09-09T13:07:04;18.87;;;6.50;;
6850;SDS011;3464;42.728;23.296;2022-09-09T13:09:21;18.60;;;6.30;;
6850;SDS011;3464;42.728;23.296;2022-09-09T13:11:49;17.80;;;5.90;;
6850;SDS011;3464;42.728;23.296;2022-09-09T13:14:15;24.87;;;6.13;;
6850;SDS011;3464;42.728;23.296;2022-09-09T13:16:53;16.63;;;6.13;;
6850;SDS011;3464;42.728;23.296;2022-09-09T13:19:18;21.23;;;6.37;;
6850;SDS011;3464;42.728;23.296;2022-09-09T13:21:44;170.77;;;44.43;;
6850;SDS011;3464;42.728;23.296;2022-09-09T13:26:55;36.73;;;12.67;;
6850;SDS011;3464;42.728;23.296;2022-09-09T13:29:22;25.57;;;6.30;;
6850;SDS011;3464;42.728;23.296;2022-09-09T13:31:48;18.50;;;5.90;;
6850;SDS011;3464;42.728;23.296;2022-09-09T13:34:32;16.60;;;6.30;;
6850;SDS011;3464;42.728;23.296;2022-09-09T13:36:59;18.23;;;6.40;;
6850;SDS011;3464;42.728;23.296;2022-09-09T13:39:26;14.97;;;6.43;;
6850;SDS011;3464;42.728;23.296;2022-09-09T13:41:53;19.40;;;6.93;;
6850;SDS011;3464;42.728;23.296;2022-09-09T13:44:22;20.30;;;7.20;;
6850;SDS011;3464;42.728;23.296;2022-09-09T13:46:48;22.93;;;6.40;;
6850;SDS011;3464;42.728;23.296;2022-09-09T13:49:19;18.10;;;6.90;;
6850;SDS011;3464;42.728;23.296;2022-09-09T13:51:48;17.03;;;6.87;;
6850;SDS011;3464;42.728;23.296;2022-09-09T13:54:15;19.40;;;7.73;;
6850;SDS011;3464;42.728;23.296;2022-09-09T13:56:41;17.00;;;6.77;;
6850;SDS011;3464;42.728;23.296;2022-09-09T13:59:10;17.73;;;6.60;;
6850;SDS011;3464;42.728;23.296;2022-09-09T14:01:37;15.20;;;6.30;;
6850;SDS011;3464;42.728;23.296;2022-09-09T14:04:06;20.47;;;6.00;;
6850;SDS011;3464;42.728;23.296;2022-09-09T14:06:33;20.43;;;5.80;;
6850;SDS011;3464;42.728;23.296;2022-09-09T14:09:00;17.73;;;5.97;;
6850;SDS011;3464;42.728;23.296;2022-09-09T14:11:27;17.83;;;5.63;;
6850;SDS011;3464;42.728;23.296;2022-09-09T14:13:55;21.00;;;5.80;;
6850;SDS011;3464;42.728;23.296;2022-09-09T14:16:22;18.13;;;5.73;;
6850;SDS011;3464;42.728;23.296;2022-09-09T14:18:49;21.13;;;5.97;;
6850;SDS011;3464;42.728;23.296;2022-09-09T14:21:17;23.43;;;6.50;;
6850;SDS011;3464;42.728;23.296;2022-09-09T14:23:44;22.27;;;6.33;;
6850;SDS011;3464;42.728;23.296;2022-09-09T14:26:11;22.70;;;5.90;;
6850;SDS011;3464;42.728;23.296;2022-09-09T14:28:38;17.17;;;6.47;;
6850;SDS011;3464;42.728;23.296;2022-09-09T14:31:05;17.70;;;5.90;;
6850;SDS011;3464;42.728;23.296;2022-09-09T14:33:31;22.00;;;6.47;;
6850;SDS011;3464;42.728;23.296;2022-09-09T14:35:59;22.77;;;6.27;;
6850;SDS011;3464;42.728;23.296;2022-09-09T14:38:29;20.90;;;7.20;;
6850;SDS011;3464;42.728;23.296;2022-09-09T14:40:57;19.00;;;5.87;;
6850;SDS011;3464;42.728;23.296;2022-09-09T14:43:24;23.33;;;6.13;;
6850;SDS011;3464;42.728;23.296;2022-09-09T14:45:51;30.03;;;6.93;;
6850;SDS011;3464;42.728;23.296;2022-09-09T14:48:17;17.60;;;7.50;;
6850;SDS011;3464;42.728;23.296;2022-09-09T14:50:44;19.53;;;8.17;;
6850;SDS011;3464;42.728;23.296;2022-09-09T14:53:11;18.67;;;7.90;;
6850;SDS011;3464;42.728;23.296;2022-09-09T14:55:38;20.03;;;8.50;;
6850;SDS011;3464;42.728;23.296;2022-09-09T14:58:05;24.23;;;8.40;;
6850;SDS011;3464;42.728;23.296;2022-09-09T15:00:32;28.43;;;7.80;;
6850;SDS011;3464;42.728;23.296;2022-09-09T15:02:59;20.90;;;7.77;;
6850;SDS011;3464;42.728;23.296;2022-09-09T15:05:26;20.97;;;8.17;;
6850;SDS011;3464;42.728;23.296;2022-09-09T15:07:52;23.00;;;7.60;;
6850;SDS011;3464;42.728;23.296;2022-09-09T15:10:21;21.87;;;7.73;;
6850;SDS011;3464;42.728;23.296;2022-09-09T15:12:49;19.87;;;8.50;;
6850;SDS011;3464;42.728;23.296;2022-09-09T15:15:16;17.97;;;7.33;;
6850;SDS011;3464;42.728;23.296;2022-09-09T15:17:42;21.30;;;7.10;;
6850;SDS011;3464;42.728;23.296;2022-09-09T15:20:09;24.40;;;7.73;;
6850;SDS011;3464;42.728;23.296;2022-09-09T15:22:36;17.87;;;7.30;;
6850;SDS011;3464;42.728;23.296;2022-09-09T15:25:02;18.60;;;7.20;;
6850;SDS011;3464;42.728;23.296;2022-09-09T15:27:29;18.73;;;8.13;;
6850;SDS011;3464;42.728;23.296;2022-09-09T15:29:57;27.37;;;8.47;;
6850;SDS011;3464;42.728;23.296;2022-09-09T15:32:26;28.90;;;9.40;;
6850;SDS011;3464;42.728;23.296;2022-09-09T15:34:52;20.17;;;8.70;;
6850;SDS011;3464;42.728;23.296;2022-09-09T15:37:19;20.40;;;8.33;;
6850;SDS011;3464;42.728;23.296;2022-09-09T15:39:47;25.53;;;8.70;;
6850;SDS011;3464;42.728;23.296;2022-09-09T15:42:18;21.50;;;8.43;;
6850;SDS011;3464;42.728;23.296;2022-09-09T15:44:45;21.70;;;8.43;;
6850;SDS011;3464;42.728;23.296;2022-09-09T15:47:12;26.60;;;9.93;;
6850;SDS011;3464;42.728;23.296;2022-09-09T15:49:39;25.37;;;8.70;;